sensor_id;sensor_type;location;lat;lon;timestamp;pressure;altitude;pressure_sealevel;temperature;humidity
60489;BME280;46331;49.252;8.904;2024-02-15T00:00:13;100193.16;;;10.53;100.00
60489;BME280;46331;49.252;8.904;2024-02-15T00:00:56;100187.88;;;10.53;100.00
60489;BME280;46331;49.252;8.904;2024-02-15T00:01:38;100195.81;;;10.53;100.00
60489;BME280;46331;49.252;8.904;2024-02-15T00:02:19;100195.81;;;10.53;100.00
60489;BME280;46331;49.252;8.904;2024-02-15T00:02:59;100198.69;;;10.51;100.00
60489;BME280;46331;49.252;8.904;2024-02-15T00:03:40;100196.25;;;10.50;100.00
60489;BME280;46331;49.252;8.904;2024-02-15T00:04:20;100206.88;;;10.50;100.00
60489;BME280;46331;49.252;8.904;2024-02-15T00:05:01;100192.00;;;10.49;100.00
60489;BME280;46331;49.252;8.904;2024-02-15T00:05:43;100195.47;;;10.49;100.00
60489;BME280;46331;49.252;8.904;2024-02-15T00:06:24;100194.28;;;10.45;100.00
60489;BME280;46331;49.252;8.904;2024-02-15T00:07:05;100180.47;;;10.43;100.00
60489;BME280;46331;49.252;8.904;2024-02-15T00:07:45;100185.75;;;10.43;100.00
60489;BME280;46331;49.252;8.904;2024-02-15T00:08:29;100181.47;;;10.42;100.00
60489;BME280;46331;49.252;8.904;2024-02-15T00:09:10;100187.00;;;10.41;100.00
60489;BME280;46331;49.252;8.904;2024-02-15T00:09:51;100190.22;;;10.43;100.00
60489;BME280;46331;49.252;8.904;2024-02-15T00:10:32;100188.63;;;10.42;100.00
60489;BME280;46331;49.252;8.904;2024-02-15T00:11:12;100186.78;;;10.42;100.00
60489;BME280;46331;49.252;8.904;2024-02-15T00:11:54;100183.34;;;10.42;100.00
60489;BME280;46331;49.252;8.904;2024-02-15T00:12:34;100185.97;;;10.42;100.00
60489;BME280;46331;49.252;8.904;2024-02-15T00:13:16;100178.25;;;10.40;100.00
60489;BME280;46331;49.252;8.904;2024-02-15T00:13:56;100178.84;;;10.42;100.00
60489;BME280;46331;49.252;8.904;2024-02-15T00:14:37;100183.69;;;10.45;100.00
60489;BME280;46331;49.252;8.904;2024-02-15T00:15:18;100181.47;;;10.42;100.00
60489;BME280;46331;49.252;8.904;2024-02-15T00:15:59;100183.56;;;10.40;100.00
60489;BME280;46331;49.252;8.904;2024-02-15T00:16:41;100181.13;;;10.38;100.00
60489;BME280;46331;49.252;8.904;2024-02-15T00:17:21;100181.13;;;10.38;100.00
60489;BME280;46331;49.252;8.904;2024-02-15T00:18:02;100187.47;;;10.37;100.00
60489;BME280;46331;49.252;8.904;2024-02-15T00:18:43;100178.69;;;10.37;100.00
60489;BME280;46331;49.252;8.904;2024-02-15T00:19:25;100185.81;;;10.36;100.00
60489;BME280;46331;49.252;8.904;2024-02-15T00:20:06;100182.22;;;10.31;100.00
60489;BME280;46331;49.252;8.904;2024-02-15T00:20:49;100183.47;;;10.28;100.00
60489;BME280;46331;49.252;8.904;2024-02-15T00:21:30;100182.06;;;10.26;100.00
60489;BME280;46331;49.252;8.904;2024-02-15T00:22:10;100186.00;;;10.23;100.00
60489;BME280;46331;49.252;8.904;2024-02-15T00:22:51;100185.16;;;10.23;100.00
60489;BME280;46331;49.252;8.904;2024-02-15T00:23:32;100176.19;;;10.24;100.00
60489;BME280;46331;49.252;8.904;2024-02-15T00:24:13;100183.19;;;10.18;100.00
60489;BME280;46331;49.252;8.904;2024-02-15T00:24:55;100175.44;;;10.16;100.00
60489;BME280;46331;49.252;8.904;2024-02-15T00:25:35;100177.75;;;10.13;100.00
60489;BME280;46331;49.252;8.904;2024-02-15T00:26:16;100185.91;;;10.11;100.00
60489;BME280;46331;49.252;8.904;2024-02-15T00:26:56;100179.22;;;10.09;100.00
60489;BME280;46331;49.252;8.904;2024-02-15T00:27:37;100173.13;;;10.08;100.00
60489;BME280;46331;49.252;8.904;2024-02-15T00:28:18;100176.78;;;10.07;100.00
60489;BME280;46331;49.252;8.904;2024-02-15T00:28:58;100180.84;;;10.10;100.00
60489;BME280;46331;49.252;8.904;2024-02-15T00:29:39;100182.91;;;10.08;100.00
60489;BME280;46331;49.252;8.904;2024-02-15T00:30:20;100183.94;;;10.07;100.00
60489;BME280;46331;49.252;8.904;2024-02-15T00:31:01;100174.81;;;10.02;100.00
60489;BME280;46331;49.252;8.904;2024-02-15T00:31:43;100178.06;;;10.05;100.00
60489;BME280;46331;49.252;8.904;2024-02-15T00:32:23;100178.28;;;10.03;100.00
60489;BME280;46331;49.252;8.904;2024-02-15T00:33:04;100181.38;;;10.00;100.00
60489;BME280;46331;49.252;8.904;2024-02-15T00:33:45;100176.50;;;9.97;100.00
60489;BME280;46331;49.252;8.904;2024-02-15T00:34:26;100187.91;;;9.97;100.00
60489;BME280;46331;49.252;8.904;2024-02-15T00:35:07;100172.81;;;9.98;100.00
60489;BME280;46331;49.252;8.904;2024-02-15T00:35:49;100173.47;;;9.93;100.00
60489;BME280;46331;49.252;8.904;2024-02-15T00:36:32;100177.97;;;9.93;100.00
60489;BME280;46331;49.252;8.904;2024-02-15T00:37:13;100178.66;;;9.88;100.00
60489;BME280;46331;49.252;8.904;2024-02-15T00:37:54;100175.41;;;9.86;100.00
60489;BME280;46331;49.252;8.904;2024-02-15T00:38:34;100174.22;;;9.82;100.00
60489;BME280;46331;49.252;8.904;2024-02-15T00:39:15;100179.97;;;9.79;100.00
60489;BME280;46331;49.252;8.904;2024-02-15T00:39:58;100168.63;;;9.72;100.00
60489;BME280;46331;49.252;8.904;2024-02-15T00:40:38;100170.47;;;9.71;100.00
60489;BME280;46331;49.252;8.904;2024-02-15T00:41:20;100167.25;;;9.69;100.00
60489;BME280;46331;49.252;8.904;2024-02-15T00:42:01;100167.47;;;9.68;100.00
60489;BME280;46331;49.252;8.904;2024-02-15T00:42:42;100171.13;;;9.66;100.00
60489;BME280;46331;49.252;8.904;2024-02-15T00:43:23;100168.94;;;9.63;100.00
60489;BME280;46331;49.252;8.904;2024-02-15T00:44:03;100167.06;;;9.64;100.00
60489;BME280;46331;49.252;8.904;2024-02-15T00:44:44;100173.63;;;9.61;100.00
60489;BME280;46331;49.252;8.904;2024-02-15T00:45:24;100167.72;;;9.59;100.00
60489;BME280;46331;49.252;8.904;2024-02-15T00:46:05;100170.59;;;9.58;100.00
60489;BME280;46331;49.252;8.904;2024-02-15T00:46:45;100169.81;;;9.57;100.00
60489;BME280;46331;49.252;8.904;2024-02-15T00:47:28;100170.03;;;9.56;100.00
60489;BME280;46331;49.252;8.904;2024-02-15T00:48:08;100178.75;;;9.56;100.00
60489;BME280;46331;49.252;8.904;2024-02-15T00:48:50;100174.94;;;9.52;100.00
60489;BME280;46331;49.252;8.904;2024-02-15T00:49:31;100180.25;;;9.52;100.00
60489;BME280;46331;49.252;8.904;2024-02-15T00:50:12;100174.13;;;9.52;100.00
60489;BME280;46331;49.252;8.904;2024-02-15T00:50:53;100175.97;;;9.51;100.00
60489;BME280;46331;49.252;8.904;2024-02-15T00:51:35;100183.34;;;9.49;100.00
60489;BME280;46331;49.252;8.904;2024-02-15T00:52:16;100173.97;;;9.46;100.00
60489;BME280;46331;49.252;8.904;2024-02-15T00:53:00;100174.63;;;9.42;100.00
60489;BME280;46331;49.252;8.904;2024-02-15T00:53:40;100179.72;;;9.43;100.00
60489;BME280;46331;49.252;8.904;2024-02-15T00:54:21;100180.72;;;9.42;100.00
60489;BME280;46331;49.252;8.904;2024-02-15T00:55:03;100185.22;;;9.42;100.00
60489;BME280;46331;49.252;8.904;2024-02-15T00:55:44;100180.59;;;9.37;100.00
60489;BME280;46331;49.252;8.904;2024-02-15T00:56:24;100183.28;;;9.30;100.00
60489;BME280;46331;49.252;8.904;2024-02-15T00:57:05;100180.03;;;9.28;100.00
60489;BME280;46331;49.252;8.904;2024-02-15T00:57:45;100178.03;;;9.24;100.00
60489;BME280;46331;49.252;8.904;2024-02-15T00:58:26;100177.03;;;9.25;100.00
60489;BME280;46331;49.252;8.904;2024-02-15T00:59:07;100179.25;;;9.28;100.00
60489;BME280;46331;49.252;8.904;2024-02-15T00:59:48;100172.75;;;9.24;100.00
60489;BME280;46331;49.252;8.904;2024-02-15T01:00:28;100179.66;;;9.25;100.00
60489;BME280;46331;49.252;8.904;2024-02-15T01:01:09;100169.09;;;9.25;100.00
60489;BME280;46331;49.252;8.904;2024-02-15T01:01:51;100167.66;;;9.22;100.00
60489;BME280;46331;49.252;8.904;2024-02-15T01:02:33;100164.59;;;9.25;100.00
60489;BME280;46331;49.252;8.904;2024-02-15T01:03:15;100170.09;;;9.24;100.00
60489;BME280;46331;49.252;8.904;2024-02-15T01:03:56;100162.16;;;9.24;100.00
60489;BME280;46331;49.252;8.904;2024-02-15T01:04:36;100163.78;;;9.25;100.00
60489;BME280;46331;49.252;8.904;2024-02-15T01:05:17;100160.72;;;9.28;100.00
60489;BME280;46331;49.252;8.904;2024-02-15T01:05:58;100162.34;;;9.29;100.00
60489;BME280;46331;49.252;8.904;2024-02-15T01:06:39;100166.16;;;9.33;100.00
60489;BME280;46331;49.252;8.904;2024-02-15T01:07:19;100169.41;;;9.35;100.00
60489;BME280;46331;49.252;8.904;2024-02-15T01:08:00;100162.84;;;9.38;100.00
60489;BME280;46331;49.252;8.904;2024-02-15T01:08:41;100171.00;;;9.36;100.00
60489;BME280;46331;49.252;8.904;2024-02-15T01:09:22;100174.50;;;9.37;100.00
60489;BME280;46331;49.252;8.904;2024-02-15T01:10:03;100166.53;;;9.37;100.00
60489;BME280;46331;49.252;8.904;2024-02-15T01:10:44;100170.22;;;9.36;100.00
60489;BME280;46331;49.252;8.904;2024-02-15T01:11:26;100169.84;;;9.32;100.00
60489;BME280;46331;49.252;8.904;2024-02-15T01:12:08;100172.72;;;9.30;100.00
60489;BME280;46331;49.252;8.904;2024-02-15T01:12:50;100170.28;;;9.29;100.00
60489;BME280;46331;49.252;8.904;2024-02-15T01:13:31;100173.16;;;9.27;100.00
60489;BME280;46331;49.252;8.904;2024-02-15T01:14:11;100172.31;;;9.27;100.00
60489;BME280;46331;49.252;8.904;2024-02-15T01:14:52;100176.22;;;9.24;100.00
60489;BME280;46331;49.252;8.904;2024-02-15T01:15:32;100168.72;;;9.21;100.00
60489;BME280;46331;49.252;8.904;2024-02-15T01:16:13;100174.00;;;9.21;100.00
60489;BME280;46331;49.252;8.904;2024-02-15T01:16:53;100178.47;;;9.21;100.00
60489;BME280;46331;49.252;8.904;2024-02-15T01:17:35;100172.38;;;9.20;100.00
60489;BME280;46331;49.252;8.904;2024-02-15T01:18:15;100169.94;;;9.19;100.00
60489;BME280;46331;49.252;8.904;2024-02-15T01:18:56;100176.69;;;9.15;100.00
60489;BME280;46331;49.252;8.904;2024-02-15T01:19:36;100177.31;;;9.17;100.00
60489;BME280;46331;49.252;8.904;2024-02-15T01:20:17;100176.47;;;9.16;100.00
60489;BME280;46331;49.252;8.904;2024-02-15T01:20:58;100181.19;;;9.14;100.00
60489;BME280;46331;49.252;8.904;2024-02-15T01:21:38;100173.25;;;9.14;100.00
60489;BME280;46331;49.252;8.904;2024-02-15T01:22:19;100178.53;;;9.14;100.00
60489;BME280;46331;49.252;8.904;2024-02-15T01:23:00;100174.66;;;9.17;100.00
60489;BME280;46331;49.252;8.904;2024-02-15T01:23:40;100174.66;;;9.17;100.00
60489;BME280;46331;49.252;8.904;2024-02-15T01:24:21;100173.63;;;9.18;100.00
60489;BME280;46331;49.252;8.904;2024-02-15T01:25:02;100177.09;;;9.18;100.00
60489;BME280;46331;49.252;8.904;2024-02-15T01:25:43;100172.97;;;9.22;100.00
60489;BME280;46331;49.252;8.904;2024-02-15T01:26:23;100167.09;;;9.20;100.00
60489;BME280;46331;49.252;8.904;2024-02-15T01:27:04;100176.03;;;9.19;100.00
60489;BME280;46331;49.252;8.904;2024-02-15T01:27:44;100170.75;;;9.19;100.00
60489;BME280;46331;49.252;8.904;2024-02-15T01:28:25;100171.59;;;9.20;100.00
60489;BME280;46331;49.252;8.904;2024-02-15T01:29:05;100179.31;;;9.21;100.00
60489;BME280;46331;49.252;8.904;2024-02-15T01:29:46;100172.38;;;9.20;100.00
60489;BME280;46331;49.252;8.904;2024-02-15T01:30:26;100169.72;;;9.20;100.00
60489;BME280;46331;49.252;8.904;2024-02-15T01:31:10;100173.78;;;9.23;100.00
60489;BME280;46331;49.252;8.904;2024-02-15T01:31:51;100169.72;;;9.20;100.00
60489;BME280;46331;49.252;8.904;2024-02-15T01:32:32;100169.53;;;9.22;100.00
60489;BME280;46331;49.252;8.904;2024-02-15T01:33:12;100172.97;;;9.22;100.00
60489;BME280;46331;49.252;8.904;2024-02-15T01:33:53;100168.72;;;9.21;100.00
60489;BME280;46331;49.252;8.904;2024-02-15T01:34:33;100168.72;;;9.21;100.00
60489;BME280;46331;49.252;8.904;2024-02-15T01:35:14;100162.38;;;9.22;100.00
60489;BME280;46331;49.252;8.904;2024-02-15T01:35:54;100165.03;;;9.22;100.00
60489;BME280;46331;49.252;8.904;2024-02-15T01:36:36;100162.81;;;9.19;100.00
60489;BME280;46331;49.252;8.904;2024-02-15T01:37:17;100169.72;;;9.20;100.00
60489;BME280;46331;49.252;8.904;2024-02-15T01:37:57;100165.03;;;9.22;100.00
60489;BME280;46331;49.252;8.904;2024-02-15T01:38:38;100166.66;;;9.23;100.00
60489;BME280;46331;49.252;8.904;2024-02-15T01:39:19;100164.59;;;9.25;100.00
60489;BME280;46331;49.252;8.904;2024-02-15T01:39:59;100167.25;;;9.25;100.00
60489;BME280;46331;49.252;8.904;2024-02-15T01:40:40;100166.44;;;9.25;100.00
60489;BME280;46331;49.252;8.904;2024-02-15T01:41:20;100173.56;;;9.24;100.00
60489;BME280;46331;49.252;8.904;2024-02-15T01:42:01;100168.88;;;9.26;100.00
60489;BME280;46331;49.252;8.904;2024-02-15T01:42:46;100164.59;;;9.25;100.00
60489;BME280;46331;49.252;8.904;2024-02-15T01:43:30;100169.88;;;9.25;100.00
60489;BME280;46331;49.252;8.904;2024-02-15T01:44:11;100171.50;;;9.26;100.00
60489;BME280;46331;49.252;8.904;2024-02-15T01:44:52;100166.00;;;9.28;100.00
60489;BME280;46331;49.252;8.904;2024-02-15T01:45:33;100167.63;;;9.29;100.00
60489;BME280;46331;49.252;8.904;2024-02-15T01:46:14;100169.44;;;9.28;100.00
60489;BME280;46331;49.252;8.904;2024-02-15T01:46:55;100172.72;;;9.30;100.00
60489;BME280;46331;49.252;8.904;2024-02-15T01:47:36;100169.84;;;9.32;100.00
60489;BME280;46331;49.252;8.904;2024-02-15T01:48:16;100174.09;;;9.33;100.00
60489;BME280;46331;49.252;8.904;2024-02-15T01:48:57;100181.81;;;9.35;100.00
60489;BME280;46331;49.252;8.904;2024-02-15T01:49:38;100171.22;;;9.35;100.00
60489;BME280;46331;49.252;8.904;2024-02-15T01:50:19;100179.59;;;9.31;100.00
60489;BME280;46331;49.252;8.904;2024-02-15T01:51:02;100174.09;;;9.33;100.00
60489;BME280;46331;49.252;8.904;2024-02-15T01:51:44;100174.72;;;9.35;100.00
60489;BME280;46331;49.252;8.904;2024-02-15T01:52:25;100175.50;;;9.36;100.00
60489;BME280;46331;49.252;8.904;2024-02-15T01:53:07;100168.16;;;9.38;100.00
60489;BME280;46331;49.252;8.904;2024-02-15T01:53:48;100166.53;;;9.37;100.00
60489;BME280;46331;49.252;8.904;2024-02-15T01:54:29;100168.16;;;9.38;100.00
60489;BME280;46331;49.252;8.904;2024-02-15T01:55:10;100163.28;;;9.35;100.00
60489;BME280;46331;49.252;8.904;2024-02-15T01:55:52;100163.28;;;9.35;100.00
60489;BME280;46331;49.252;8.904;2024-02-15T01:56:34;100176.09;;;9.38;100.00
60489;BME280;46331;49.252;8.904;2024-02-15T01:57:15;100170.56;;;9.39;100.00
60489;BME280;46331;49.252;8.904;2024-02-15T01:57:56;100161.84;;;9.39;100.00
60489;BME280;46331;49.252;8.904;2024-02-15T01:58:39;100161.41;;;9.42;100.00
60489;BME280;46331;49.252;8.904;2024-02-15T01:59:22;100162.63;;;9.39;100.00
60489;BME280;46331;49.252;8.904;2024-02-15T02:00:05;100161.25;;;9.37;100.00
60489;BME280;46331;49.252;8.904;2024-02-15T02:01:00;100156.19;;;9.35;100.00
60489;BME280;46331;49.252;8.904;2024-02-15T02:01:44;100157.19;;;9.34;100.00
60489;BME280;46331;49.252;8.904;2024-02-15T02:02:28;100160.84;;;9.33;100.00
60489;BME280;46331;49.252;8.904;2024-02-15T02:03:14;100156.84;;;9.30;100.00
60489;BME280;46331;49.252;8.904;2024-02-15T02:03:55;100155.41;;;9.28;100.00
60489;BME280;46331;49.252;8.904;2024-02-15T02:04:37;100153.78;;;9.27;100.00
60489;BME280;46331;49.252;8.904;2024-02-15T02:05:18;100159.09;;;9.27;100.00
60489;BME280;46331;49.252;8.904;2024-02-15T02:05:59;100156.44;;;9.27;100.00
60489;BME280;46331;49.252;8.904;2024-02-15T02:06:40;100162.78;;;9.26;100.00
60489;BME280;46331;49.252;8.904;2024-02-15T02:07:23;100161.38;;;9.23;100.00
60489;BME280;46331;49.252;8.904;2024-02-15T02:08:04;100164.59;;;9.25;100.00
60489;BME280;46331;49.252;8.904;2024-02-15T02:08:49;100159.50;;;9.24;100.00
60489;BME280;46331;49.252;8.904;2024-02-15T02:09:30;100151.78;;;9.22;100.00
60489;BME280;46331;49.252;8.904;2024-02-15T02:10:11;100155.28;;;9.23;100.00
60489;BME280;46331;49.252;8.904;2024-02-15T02:10:52;100149.22;;;9.16;100.00
60489;BME280;46331;49.252;8.904;2024-02-15T02:11:33;100150.66;;;9.11;100.00
60489;BME280;46331;49.252;8.904;2024-02-15T02:12:14;100149.66;;;9.12;100.00
60489;BME280;46331;49.252;8.904;2024-02-15T02:12:55;100150.44;;;9.13;100.00
60489;BME280;46331;49.252;8.904;2024-02-15T02:13:36;100149.44;;;9.14;100.00
60489;BME280;46331;49.252;8.904;2024-02-15T02:14:16;100151.28;;;9.13;100.00
60489;BME280;46331;49.252;8.904;2024-02-15T02:14:57;100158.16;;;9.15;100.00
60489;BME280;46331;49.252;8.904;2024-02-15T02:15:38;100146.34;;;9.17;100.00
60489;BME280;46331;49.252;8.904;2024-02-15T02:16:28;100147.56;;;9.21;100.00
60489;BME280;46331;49.252;8.904;2024-02-15T02:17:15;100157.31;;;9.21;100.00
60489;BME280;46331;49.252;8.904;2024-02-15T02:17:55;100151.22;;;9.20;100.00
60489;BME280;46331;49.252;8.904;2024-02-15T02:18:36;100150.19;;;9.21;100.00
60489;BME280;46331;49.252;8.904;2024-02-15T02:19:17;100151.22;;;9.20;100.00
60489;BME280;46331;49.252;8.904;2024-02-15T02:19:58;100148.56;;;9.20;100.00
60489;BME280;46331;49.252;8.904;2024-02-15T02:20:38;100154.50;;;9.16;100.00
60489;BME280;46331;49.252;8.904;2024-02-15T02:21:19;100152.88;;;9.15;100.00
60489;BME280;46331;49.252;8.904;2024-02-15T02:22:01;100145.16;;;9.13;100.00
60489;BME280;46331;49.252;8.904;2024-02-15T02:22:41;100156.13;;;9.17;100.00
60489;BME280;46331;49.252;8.904;2024-02-15T02:23:26;100150.84;;;9.17;100.00
60489;BME280;46331;49.252;8.904;2024-02-15T02:24:21;100142.69;;;9.18;100.00
60489;BME280;46331;49.252;8.904;2024-02-15T02:25:05;100143.50;;;9.19;100.00
60489;BME280;46331;49.252;8.904;2024-02-15T02:25:46;100145.91;;;9.20;100.00
60489;BME280;46331;49.252;8.904;2024-02-15T02:26:29;100146.72;;;9.21;100.00
60489;BME280;46331;49.252;8.904;2024-02-15T02:27:12;100144.28;;;9.19;100.00
60489;BME280;46331;49.252;8.904;2024-02-15T02:27:54;100140.63;;;9.20;100.00
60489;BME280;46331;49.252;8.904;2024-02-15T02:28:36;100146.50;;;9.22;100.00
60489;BME280;46331;49.252;8.904;2024-02-15T02:29:16;100144.91;;;9.21;100.00
60489;BME280;46331;49.252;8.904;2024-02-15T02:29:57;100139.19;;;9.24;100.00
60489;BME280;46331;49.252;8.904;2024-02-15T02:30:39;100141.81;;;9.24;100.00
60489;BME280;46331;49.252;8.904;2024-02-15T02:31:22;100146.06;;;9.25;100.00
60489;BME280;46331;49.252;8.904;2024-02-15T02:32:02;100141.81;;;9.24;100.00
60489;BME280;46331;49.252;8.904;2024-02-15T02:32:43;100156.22;;;9.28;100.00
60489;BME280;46331;49.252;8.904;2024-02-15T02:33:24;100142.56;;;9.31;100.00
60489;BME280;46331;49.252;8.904;2024-02-15T02:34:08;100141.75;;;9.31;100.00
60489;BME280;46331;49.252;8.904;2024-02-15T02:34:50;100137.25;;;9.31;100.00
60489;BME280;46331;49.252;8.904;2024-02-15T02:35:32;100142.34;;;9.33;100.00
60489;BME280;46331;49.252;8.904;2024-02-15T02:36:13;100146.59;;;9.34;100.00
60489;BME280;46331;49.252;8.904;2024-02-15T02:36:53;100149.03;;;9.36;100.00
60489;BME280;46331;49.252;8.904;2024-02-15T02:37:34;100144.75;;;9.35;100.00
60489;BME280;46331;49.252;8.904;2024-02-15T02:38:17;100153.91;;;9.39;100.00
60489;BME280;46331;49.252;8.904;2024-02-15T02:38:57;100142.72;;;9.37;100.00
60489;BME280;46331;49.252;8.904;2024-02-15T02:39:41;100144.63;;;9.29;100.00
60489;BME280;46331;49.252;8.904;2024-02-15T02:40:23;100135.88;;;9.29;100.00
60489;BME280;46331;49.252;8.904;2024-02-15T02:41:04;100140.94;;;9.30;100.00
60489;BME280;46331;49.252;8.904;2024-02-15T02:41:44;100141.75;;;9.31;100.00
60489;BME280;46331;49.252;8.904;2024-02-15T02:42:25;100141.53;;;9.33;100.00
60489;BME280;46331;49.252;8.904;2024-02-15T02:43:05;100140.50;;;9.34;100.00
60489;BME280;46331;49.252;8.904;2024-02-15T02:43:46;100142.13;;;9.35;100.00
60489;BME280;46331;49.252;8.904;2024-02-15T02:44:27;100145.81;;;9.34;100.00
60489;BME280;46331;49.252;8.904;2024-02-15T02:45:08;100147.19;;;9.36;100.00
60489;BME280;46331;49.252;8.904;2024-02-15T02:45:48;100145.94;;;9.39;100.00
60489;BME280;46331;49.252;8.904;2024-02-15T02:46:29;100154.69;;;9.39;100.00
60489;BME280;46331;49.252;8.904;2024-02-15T02:47:09;100146.75;;;9.39;100.00
60489;BME280;46331;49.252;8.904;2024-02-15T02:47:50;100152.25;;;9.38;100.00
60489;BME280;46331;49.252;8.904;2024-02-15T02:48:31;100148.03;;;9.37;100.00
60489;BME280;46331;49.252;8.904;2024-02-15T02:49:12;100154.91;;;9.38;100.00
60489;BME280;46331;49.252;8.904;2024-02-15T02:49:52;100149.63;;;9.38;100.00
60489;BME280;46331;49.252;8.904;2024-02-15T02:50:33;100147.59;;;9.40;100.00
60489;BME280;46331;49.252;8.904;2024-02-15T02:51:15;100149.19;;;9.41;100.00
60489;BME280;46331;49.252;8.904;2024-02-15T02:51:56;100153.31;;;9.37;100.00
60489;BME280;46331;49.252;8.904;2024-02-15T02:52:36;100153.91;;;9.39;100.00
60489;BME280;46331;49.252;8.904;2024-02-15T02:53:19;100146.97;;;9.38;100.00
60489;BME280;46331;49.252;8.904;2024-02-15T02:54:00;100148.03;;;9.37;100.00
60489;BME280;46331;49.252;8.904;2024-02-15T02:54:41;100148.81;;;9.37;100.00
60489;BME280;46331;49.252;8.904;2024-02-15T02:55:22;100149.63;;;9.38;100.00
60489;BME280;46331;49.252;8.904;2024-02-15T02:56:02;100148.59;;;9.39;100.00
60489;BME280;46331;49.252;8.904;2024-02-15T02:56:44;100148.97;;;9.42;100.00
60489;BME280;46331;49.252;8.904;2024-02-15T02:57:25;100141.25;;;9.41;100.00
60489;BME280;46331;49.252;8.904;2024-02-15T02:58:06;100148.97;;;9.42;100.00
60489;BME280;46331;49.252;8.904;2024-02-15T02:58:48;100147.94;;;9.43;100.00
60489;BME280;46331;49.252;8.904;2024-02-15T02:59:28;100145.88;;;9.45;100.00
60489;BME280;46331;49.252;8.904;2024-02-15T03:00:11;100151.38;;;9.44;100.00
60489;BME280;46331;49.252;8.904;2024-02-15T03:00:55;100147.16;;;9.43;100.00
60489;BME280;46331;49.252;8.904;2024-02-15T03:01:38;100147.94;;;9.43;100.00
60489;BME280;46331;49.252;8.904;2024-02-15T03:02:20;100142.44;;;9.45;100.00
60489;BME280;46331;49.252;8.904;2024-02-15T03:03:03;100149.94;;;9.48;100.00
60489;BME280;46331;49.252;8.904;2024-02-15T03:03:45;100151.34;;;9.51;100.00
60489;BME280;46331;49.252;8.904;2024-02-15T03:04:26;100144.41;;;9.49;100.00
60489;BME280;46331;49.252;8.904;2024-02-15T03:05:07;100149.06;;;9.54;100.00
60489;BME280;46331;49.252;8.904;2024-02-15T03:05:48;100138.69;;;9.53;100.00
60489;BME280;46331;49.252;8.904;2024-02-15T03:06:29;100137.88;;;9.52;100.00
60489;BME280;46331;49.252;8.904;2024-02-15T03:07:09;100137.88;;;9.52;100.00
60489;BME280;46331;49.252;8.904;2024-02-15T03:07:50;100136.84;;;9.53;100.00
60489;BME280;46331;49.252;8.904;2024-02-15T03:08:32;100140.16;;;9.48;100.00
60489;BME280;46331;49.252;8.904;2024-02-15T03:09:12;100145.00;;;9.52;100.00
60489;BME280;46331;49.252;8.904;2024-02-15T03:09:54;100139.69;;;9.52;100.00
60489;BME280;46331;49.252;8.904;2024-02-15T03:10:35;100141.78;;;9.49;100.00
60489;BME280;46331;49.252;8.904;2024-02-15T03:11:15;100141.78;;;9.49;100.00
60489;BME280;46331;49.252;8.904;2024-02-15T03:11:56;100140.16;;;9.48;100.00
60489;BME280;46331;49.252;8.904;2024-02-15T03:12:37;100142.22;;;9.46;100.00
60489;BME280;46331;49.252;8.904;2024-02-15T03:13:18;100143.84;;;9.47;100.00
60489;BME280;46331;49.252;8.904;2024-02-15T03:14:01;100144.84;;;9.46;100.00
60489;BME280;46331;49.252;8.904;2024-02-15T03:14:44;100132.41;;;9.47;100.00
60489;BME280;46331;49.252;8.904;2024-02-15T03:15:26;100138.31;;;9.49;100.00
60489;BME280;46331;49.252;8.904;2024-02-15T03:16:06;100137.88;;;9.52;100.00
60489;BME280;46331;49.252;8.904;2024-02-15T03:16:47;100137.88;;;9.52;100.00
60489;BME280;46331;49.252;8.904;2024-02-15T03:17:27;100143.19;;;9.52;100.00
60489;BME280;46331;49.252;8.904;2024-02-15T03:18:08;100143.19;;;9.52;100.00
60489;BME280;46331;49.252;8.904;2024-02-15T03:18:48;100135.81;;;9.54;100.00
60489;BME280;46331;49.252;8.904;2024-02-15T03:19:29;100140.91;;;9.56;100.00
60489;BME280;46331;49.252;8.904;2024-02-15T03:20:12;100143.53;;;9.56;100.00
60489;BME280;46331;49.252;8.904;2024-02-15T03:21:00;100138.25;;;9.56;100.00
60489;BME280;46331;49.252;8.904;2024-02-15T03:21:41;100142.31;;;9.58;100.00
60489;BME280;46331;49.252;8.904;2024-02-15T03:22:28;100143.91;;;9.59;100.00
60489;BME280;46331;49.252;8.904;2024-02-15T03:23:09;100143.69;;;9.61;100.00
60489;BME280;46331;49.252;8.904;2024-02-15T03:23:51;100138.16;;;9.62;100.00
60489;BME280;46331;49.252;8.904;2024-02-15T03:24:31;100144.28;;;9.63;100.00
60489;BME280;46331;49.252;8.904;2024-02-15T03:25:12;100139.56;;;9.65;100.00
60489;BME280;46331;49.252;8.904;2024-02-15T03:25:53;100136.13;;;9.64;100.00
60489;BME280;46331;49.252;8.904;2024-02-15T03:26:34;100138.16;;;9.62;100.00
60489;BME280;46331;49.252;8.904;2024-02-15T03:27:18;100139.00;;;9.63;100.00
60489;BME280;46331;49.252;8.904;2024-02-15T03:28:03;100136.72;;;9.66;100.00
60489;BME280;46331;49.252;8.904;2024-02-15T03:28:44;100135.69;;;9.68;100.00
60489;BME280;46331;49.252;8.904;2024-02-15T03:29:24;100140.97;;;9.68;100.00
60489;BME280;46331;49.252;8.904;2024-02-15T03:30:06;100135.47;;;9.69;100.00
60489;BME280;46331;49.252;8.904;2024-02-15T03:30:46;100139.56;;;9.65;100.00
60489;BME280;46331;49.252;8.904;2024-02-15T03:31:27;100137.72;;;9.65;100.00
60489;BME280;46331;49.252;8.904;2024-02-15T03:32:07;100140.25;;;9.60;100.00
60489;BME280;46331;49.252;8.904;2024-02-15T03:32:50;100149.16;;;9.66;100.00
60489;BME280;46331;49.252;8.904;2024-02-15T03:33:33;100138.78;;;9.64;100.00
60489;BME280;46331;49.252;8.904;2024-02-15T03:34:15;100139.56;;;9.65;100.00
60489;BME280;46331;49.252;8.904;2024-02-15T03:34:56;100143.84;;;9.66;100.00
60489;BME280;46331;49.252;8.904;2024-02-15T03:35:36;100139.94;;;9.69;100.00